sensor_id;sensor_type;location;lat;lon;timestamp;P1;durP1;ratioP1;P2;durP2;ratioP2
76582;SDS011;65462;52.148;7.940;2023-02-05T00:01:10;5.47;;;3.67;;
76582;SDS011;65462;52.148;7.940;2023-02-05T00:03:36;5.80;;;3.90;;
76582;SDS011;65462;52.148;7.940;2023-02-05T00:06:02;6.80;;;4.13;;
76582;SDS011;65462;52.148;7.940;2023-02-05T00:08:28;7.07;;;4.70;;
76582;SDS011;65462;52.148;7.940;2023-02-05T00:10:54;6.57;;;4.07;;
76582;SDS011;65462;52.148;7.940;2023-02-05T00:13:19;7.97;;;4.40;;
76582;SDS011;65462;52.148;7.940;2023-02-05T00:15:45;6.53;;;3.80;;
76582;SDS011;65462;52.148;7.940;2023-02-05T00:18:10;6.80;;;3.70;;
76582;SDS011;65462;52.148;7.940;2023-02-05T00:20:35;7.30;;;3.87;;
76582;SDS011;65462;52.148;7.940;2023-02-05T00:23:01;6.97;;;4.20;;
76582;SDS011;65462;52.148;7.940;2023-02-05T00:25:26;7.63;;;4.67;;
76582;SDS011;65462;52.148;7.940;2023-02-05T00:27:55;6.57;;;3.70;;
76582;SDS011;65462;52.148;7.940;2023-02-05T00:30:20;6.60;;;4.00;;
76582;SDS011;65462;52.148;7.940;2023-02-05T00:32:45;7.63;;;4.57;;
76582;SDS011;65462;52.148;7.940;2023-02-05T00:35:11;6.37;;;4.17;;
76582;SDS011;65462;52.148;7.940;2023-02-05T00:37:36;7.17;;;4.33;;
76582;SDS011;65462;52.148;7.940;2023-02-05T00:40:01;6.47;;;4.13;;
76582;SDS011;65462;52.148;7.940;2023-02-05T00:42:27;7.20;;;4.60;;
76582;SDS011;65462;52.148;7.940;2023-02-05T00:44:52;6.47;;;4.37;;
76582;SDS011;65462;52.148;7.940;2023-02-05T00:47:17;7.10;;;4.70;;
76582;SDS011;65462;52.148;7.940;2023-02-05T00:49:43;5.80;;;4.03;;
76582;SDS011;65462;52.148;7.940;2023-02-05T00:52:08;7.23;;;4.50;;
76582;SDS011;65462;52.148;7.940;2023-02-05T00:54:33;9.03;;;5.03;;
76582;SDS011;65462;52.148;7.940;2023-02-05T00:56:58;6.60;;;4.87;;
76582;SDS011;65462;52.148;7.940;2023-02-05T00:59:24;7.17;;;4.80;;
76582;SDS011;65462;52.148;7.940;2023-02-05T01:01:49;7.70;;;5.17;;
76582;SDS011;65462;52.148;7.940;2023-02-05T01:04:14;7.77;;;5.13;;
76582;SDS011;65462;52.148;7.940;2023-02-05T01:06:40;7.03;;;4.87;;
76582;SDS011;65462;52.148;7.940;2023-02-05T01:09:05;10.73;;;5.20;;
76582;SDS011;65462;52.148;7.940;2023-02-05T01:11:31;7.87;;;5.20;;
76582;SDS011;65462;52.148;7.940;2023-02-05T01:13:56;8.33;;;4.77;;
76582;SDS011;65462;52.148;7.940;2023-02-05T01:16:22;8.53;;;4.97;;
76582;SDS011;65462;52.148;7.940;2023-02-05T01:18:47;7.80;;;5.30;;
76582;SDS011;65462;52.148;7.940;2023-02-05T01:21:12;7.80;;;5.17;;
76582;SDS011;65462;52.148;7.940;2023-02-05T01:23:37;6.57;;;5.00;;
76582;SDS011;65462;52.148;7.940;2023-02-05T01:26:03;7.60;;;4.87;;
76582;SDS011;65462;52.148;7.940;2023-02-05T01:28:28;9.30;;;5.23;;
76582;SDS011;65462;52.148;7.940;2023-02-05T01:30:53;8.20;;;4.83;;
76582;SDS011;65462;52.148;7.940;2023-02-05T01:33:19;8.13;;;4.87;;
76582;SDS011;65462;52.148;7.940;2023-02-05T01:35:44;8.50;;;5.10;;
76582;SDS011;65462;52.148;7.940;2023-02-05T01:38:13;7.93;;;5.03;;
76582;SDS011;65462;52.148;7.940;2023-02-05T01:40:39;10.07;;;5.13;;
76582;SDS011;65462;52.148;7.940;2023-02-05T01:43:11;7.93;;;4.87;;
76582;SDS011;65462;52.148;7.940;2023-02-05T01:45:54;7.47;;;4.53;;
76582;SDS011;65462;52.148;7.940;2023-02-05T01:48:31;6.73;;;4.60;;
76582;SDS011;65462;52.148;7.940;2023-02-05T01:51:01;7.23;;;4.67;;
76582;SDS011;65462;52.148;7.940;2023-02-05T01:53:30;7.67;;;4.80;;
76582;SDS011;65462;52.148;7.940;2023-02-05T01:56:03;7.80;;;4.60;;
76582;SDS011;65462;52.148;7.940;2023-02-05T01:58:35;6.27;;;4.50;;
76582;SDS011;65462;52.148;7.940;2023-02-05T02:01:05;7.73;;;4.53;;
76582;SDS011;65462;52.148;7.940;2023-02-05T02:03:30;8.23;;;5.03;;
76582;SDS011;65462;52.148;7.940;2023-02-05T02:05:56;7.23;;;4.50;;
76582;SDS011;65462;52.148;7.940;2023-02-05T02:08:22;7.63;;;4.67;;
76582;SDS011;65462;52.148;7.940;2023-02-05T02:10:47;8.37;;;5.00;;
76582;SDS011;65462;52.148;7.940;2023-02-05T02:13:14;6.40;;;4.50;;
76582;SDS011;65462;52.148;7.940;2023-02-05T02:15:40;7.73;;;4.87;;
76582;SDS011;65462;52.148;7.940;2023-02-05T02:18:05;7.47;;;4.53;;
76582;SDS011;65462;52.148;7.940;2023-02-05T02:21:03;7.40;;;4.80;;
76582;SDS011;65462;52.148;7.940;2023-02-05T02:29:12;6.83;;;4.27;;
76582;SDS011;65462;52.148;7.940;2023-02-05T02:31:49;6.93;;;4.90;;
76582;SDS011;65462;52.148;7.940;2023-02-05T02:34:24;6.70;;;4.30;;
76582;SDS011;65462;52.148;7.940;2023-02-05T02:37:04;7.65;;;4.93;;
76582;SDS011;65462;52.148;7.940;2023-02-05T02:42:12;6.93;;;4.40;;
76582;SDS011;65462;52.148;7.940;2023-02-05T02:44:45;6.43;;;4.43;;
76582;SDS011;65462;52.148;7.940;2023-02-05T02:47:19;6.27;;;4.23;;
76582;SDS011;65462;52.148;7.940;2023-02-05T02:49:49;7.43;;;4.33;;
76582;SDS011;65462;52.148;7.940;2023-02-05T02:52:19;6.50;;;4.73;;
76582;SDS011;65462;52.148;7.940;2023-02-05T02:54:47;7.83;;;4.67;;
76582;SDS011;65462;52.148;7.940;2023-02-05T02:57:16;6.77;;;4.13;;
76582;SDS011;65462;52.148;7.940;2023-02-05T02:59:44;6.83;;;4.47;;
76582;SDS011;65462;52.148;7.940;2023-02-05T03:02:12;8.33;;;4.40;;
76582;SDS011;65462;52.148;7.940;2023-02-05T03:04:40;7.80;;;4.93;;
76582;SDS011;65462;52.148;7.940;2023-02-05T03:07:10;6.20;;;4.17;;
76582;SDS011;65462;52.148;7.940;2023-02-05T03:09:39;7.47;;;4.63;;
76582;SDS011;65462;52.148;7.940;2023-02-05T03:12:11;6.77;;;4.67;;
76582;SDS011;65462;52.148;7.940;2023-02-05T03:14:36;6.57;;;4.77;;
76582;SDS011;65462;52.148;7.940;2023-02-05T03:17:02;5.97;;;4.23;;
76582;SDS011;65462;52.148;7.940;2023-02-05T03:19:28;7.67;;;4.63;;
76582;SDS011;65462;52.148;7.940;2023-02-05T03:21:55;6.67;;;4.60;;
76582;SDS011;65462;52.148;7.940;2023-02-05T03:24:24;6.23;;;4.90;;
76582;SDS011;65462;52.148;7.940;2023-02-05T03:26:50;7.30;;;4.47;;
76582;SDS011;65462;52.148;7.940;2023-02-05T03:29:16;7.10;;;4.87;;
76582;SDS011;65462;52.148;7.940;2023-02-05T03:32:50;7.05;;;4.38;;
76582;SDS011;65462;52.148;7.940;2023-02-05T03:43:05;10.77;;;5.07;;
76582;SDS011;65462;52.148;7.940;2023-02-05T03:45:38;7.50;;;4.93;;
76582;SDS011;65462;52.148;7.940;2023-02-05T03:48:16;7.13;;;5.07;;
76582;SDS011;65462;52.148;7.940;2023-02-05T03:56:16;7.73;;;5.10;;
76582;SDS011;65462;52.148;7.940;2023-02-05T03:58:47;7.05;;;5.45;;
76582;SDS011;65462;52.148;7.940;2023-02-05T04:01:16;8.17;;;5.07;;
76582;SDS011;65462;52.148;7.940;2023-02-05T04:03:42;7.80;;;5.20;;
76582;SDS011;65462;52.148;7.940;2023-02-05T04:06:08;7.03;;;4.87;;
76582;SDS011;65462;52.148;7.940;2023-02-05T04:08:33;7.13;;;5.20;;
76582;SDS011;65462;52.148;7.940;2023-02-05T04:10:58;7.43;;;5.30;;
76582;SDS011;65462;52.148;7.940;2023-02-05T04:13:24;9.00;;;5.00;;
76582;SDS011;65462;52.148;7.940;2023-02-05T04:15:49;7.47;;;4.90;;
76582;SDS011;65462;52.148;7.940;2023-02-05T04:18:15;9.10;;;5.47;;
76582;SDS011;65462;52.148;7.940;2023-02-05T04:20:41;8.30;;;5.30;;
76582;SDS011;65462;52.148;7.940;2023-02-05T04:23:06;10.73;;;5.30;;
76582;SDS011;65462;52.148;7.940;2023-02-05T04:25:32;7.73;;;5.10;;
76582;SDS011;65462;52.148;7.940;2023-02-05T04:27:57;7.80;;;5.53;;
76582;SDS011;65462;52.148;7.940;2023-02-05T04:30:23;7.23;;;5.20;;
76582;SDS011;65462;52.148;7.940;2023-02-05T04:32:48;9.00;;;5.40;;
76582;SDS011;65462;52.148;7.940;2023-02-05T04:35:13;6.70;;;4.90;;
76582;SDS011;65462;52.148;7.940;2023-02-05T04:37:39;7.60;;;4.67;;
76582;SDS011;65462;52.148;7.940;2023-02-05T04:40:04;7.40;;;4.80;;
76582;SDS011;65462;52.148;7.940;2023-02-05T04:42:30;7.40;;;5.23;;
76582;SDS011;65462;52.148;7.940;2023-02-05T04:44:55;7.23;;;4.77;;
76582;SDS011;65462;52.148;7.940;2023-02-05T04:47:21;10.03;;;5.10;;
76582;SDS011;65462;52.148;7.940;2023-02-05T04:49:46;7.80;;;4.90;;
76582;SDS011;65462;52.148;7.940;2023-02-05T04:52:11;7.50;;;5.23;;
76582;SDS011;65462;52.148;7.940;2023-02-05T04:54:36;7.63;;;5.40;;
76582;SDS011;65462;52.148;7.940;2023-02-05T04:57:02;7.23;;;4.90;;
76582;SDS011;65462;52.148;7.940;2023-02-05T04:59:27;9.13;;;5.20;;
76582;SDS011;65462;52.148;7.940;2023-02-05T05:01:54;7.37;;;4.77;;
76582;SDS011;65462;52.148;7.940;2023-02-05T05:04:19;8.93;;;5.20;;
76582;SDS011;65462;52.148;7.940;2023-02-05T05:06:45;7.23;;;5.13;;
76582;SDS011;65462;52.148;7.940;2023-02-05T05:09:10;10.90;;;5.40;;
76582;SDS011;65462;52.148;7.940;2023-02-05T05:11:35;7.83;;;5.37;;
76582;SDS011;65462;52.148;7.940;2023-02-05T05:14:00;9.40;;;5.40;;
76582;SDS011;65462;52.148;7.940;2023-02-05T05:16:26;8.03;;;5.07;;
76582;SDS011;65462;52.148;7.940;2023-02-05T05:18:51;7.10;;;4.67;;
76582;SDS011;65462;52.148;7.940;2023-02-05T05:21:17;8.30;;;5.37;;
76582;SDS011;65462;52.148;7.940;2023-02-05T05:23:42;9.63;;;6.27;;
76582;SDS011;65462;52.148;7.940;2023-02-05T05:26:08;8.37;;;5.33;;
76582;SDS011;65462;52.148;7.940;2023-02-05T05:28:36;10.37;;;6.10;;
76582;SDS011;65462;52.148;7.940;2023-02-05T05:31:09;9.03;;;6.20;;
76582;SDS011;65462;52.148;7.940;2023-02-05T05:33:37;8.17;;;5.03;;
76582;SDS011;65462;52.148;7.940;2023-02-05T05:36:03;9.03;;;5.53;;
76582;SDS011;65462;52.148;7.940;2023-02-05T05:38:30;8.67;;;5.47;;
76582;SDS011;65462;52.148;7.940;2023-02-05T05:40:55;9.63;;;6.00;;
76582;SDS011;65462;52.148;7.940;2023-02-05T05:43:39;9.57;;;5.30;;
76582;SDS011;65462;52.148;7.940;2023-02-05T05:46:23;9.88;;;6.10;;
76582;SDS011;65462;52.148;7.940;2023-02-05T05:48:50;8.67;;;5.43;;
76582;SDS011;65462;52.148;7.940;2023-02-05T05:51:16;9.30;;;6.03;;
76582;SDS011;65462;52.148;7.940;2023-02-05T05:53:43;9.43;;;5.57;;
76582;SDS011;65462;52.148;7.940;2023-02-05T05:56:08;13.83;;;6.43;;
76582;SDS011;65462;52.148;7.940;2023-02-05T05:58:34;9.57;;;6.30;;
76582;SDS011;65462;52.148;7.940;2023-02-05T06:00:59;11.33;;;6.67;;
76582;SDS011;65462;52.148;7.940;2023-02-05T06:03:25;10.27;;;6.17;;
76582;SDS011;65462;52.148;7.940;2023-02-05T06:05:50;11.67;;;6.93;;
76582;SDS011;65462;52.148;7.940;2023-02-05T06:08:16;9.57;;;6.67;;
76582;SDS011;65462;52.148;7.940;2023-02-05T06:10:41;12.27;;;6.73;;
76582;SDS011;65462;52.148;7.940;2023-02-05T06:13:06;13.60;;;6.30;;
76582;SDS011;65462;52.148;7.940;2023-02-05T06:15:31;11.10;;;7.00;;
76582;SDS011;65462;52.148;7.940;2023-02-05T06:17:57;11.67;;;7.37;;
76582;SDS011;65462;52.148;7.940;2023-02-05T06:20:22;11.50;;;6.83;;
76582;SDS011;65462;52.148;7.940;2023-02-05T06:22:47;12.50;;;6.57;;
76582;SDS011;65462;52.148;7.940;2023-02-05T06:25:12;11.63;;;6.97;;
76582;SDS011;65462;52.148;7.940;2023-02-05T06:27:39;11.57;;;6.23;;
76582;SDS011;65462;52.148;7.940;2023-02-05T06:30:04;10.13;;;6.20;;
76582;SDS011;65462;52.148;7.940;2023-02-05T06:32:30;13.17;;;6.60;;
76582;SDS011;65462;52.148;7.940;2023-02-05T06:34:55;11.67;;;6.53;;
76582;SDS011;65462;52.148;7.940;2023-02-05T06:37:21;11.17;;;6.70;;
76582;SDS011;65462;52.148;7.940;2023-02-05T06:39:49;13.40;;;6.73;;
76582;SDS011;65462;52.148;7.940;2023-02-05T06:42:14;11.93;;;6.80;;
76582;SDS011;65462;52.148;7.940;2023-02-05T06:44:40;10.97;;;7.13;;
76582;SDS011;65462;52.148;7.940;2023-02-05T06:47:05;12.50;;;7.37;;
76582;SDS011;65462;52.148;7.940;2023-02-05T06:49:30;10.17;;;6.90;;
76582;SDS011;65462;52.148;7.940;2023-02-05T06:51:55;11.57;;;7.20;;
76582;SDS011;65462;52.148;7.940;2023-02-05T06:54:21;13.00;;;7.67;;
76582;SDS011;65462;52.148;7.940;2023-02-05T06:56:46;10.90;;;7.27;;
76582;SDS011;65462;52.148;7.940;2023-02-05T06:59:11;14.00;;;7.40;;
76582;SDS011;65462;52.148;7.940;2023-02-05T07:01:37;10.37;;;7.30;;
76582;SDS011;65462;52.148;7.940;2023-02-05T07:04:05;10.80;;;6.80;;
76582;SDS011;65462;52.148;7.940;2023-02-05T07:06:30;10.77;;;7.57;;
76582;SDS011;65462;52.148;7.940;2023-02-05T07:08:56;10.83;;;6.97;;
76582;SDS011;65462;52.148;7.940;2023-02-05T07:11:21;12.70;;;7.03;;
76582;SDS011;65462;52.148;7.940;2023-02-05T07:13:47;13.77;;;7.73;;
76582;SDS011;65462;52.148;7.940;2023-02-05T07:16:13;10.93;;;7.53;;
76582;SDS011;65462;52.148;7.940;2023-02-05T07:18:38;11.60;;;7.27;;
76582;SDS011;65462;52.148;7.940;2023-02-05T07:21:04;12.57;;;8.10;;
76582;SDS011;65462;52.148;7.940;2023-02-05T07:23:30;12.23;;;7.33;;
76582;SDS011;65462;52.148;7.940;2023-02-05T07:25:55;13.13;;;7.43;;
76582;SDS011;65462;52.148;7.940;2023-02-05T07:28:20;11.70;;;6.90;;
76582;SDS011;65462;52.148;7.940;2023-02-05T07:30:46;12.57;;;7.43;;
76582;SDS011;65462;52.148;7.940;2023-02-05T07:33:12;13.13;;;8.10;;
76582;SDS011;65462;52.148;7.940;2023-02-05T07:35:38;12.43;;;7.70;;
76582;SDS011;65462;52.148;7.940;2023-02-05T07:38:03;13.03;;;7.67;;
76582;SDS011;65462;52.148;7.940;2023-02-05T07:40:29;13.57;;;8.40;;
76582;SDS011;65462;52.148;7.940;2023-02-05T07:42:54;12.40;;;8.03;;
76582;SDS011;65462;52.148;7.940;2023-02-05T07:45:19;15.30;;;8.43;;
76582;SDS011;65462;52.148;7.940;2023-02-05T07:47:45;16.73;;;8.83;;
76582;SDS011;65462;52.148;7.940;2023-02-05T07:50:10;13.83;;;8.27;;
76582;SDS011;65462;52.148;7.940;2023-02-05T07:52:36;15.53;;;8.27;;
76582;SDS011;65462;52.148;7.940;2023-02-05T07:55:01;13.97;;;8.40;;
76582;SDS011;65462;52.148;7.940;2023-02-05T07:57:26;15.67;;;8.33;;
76582;SDS011;65462;52.148;7.940;2023-02-05T07:59:52;15.03;;;9.20;;
76582;SDS011;65462;52.148;7.940;2023-02-05T08:02:17;14.97;;;8.53;;
76582;SDS011;65462;52.148;7.940;2023-02-05T08:04:42;17.50;;;8.67;;
76582;SDS011;65462;52.148;7.940;2023-02-05T08:07:09;19.93;;;9.43;;
76582;SDS011;65462;52.148;7.940;2023-02-05T08:09:36;13.90;;;8.40;;
76582;SDS011;65462;52.148;7.940;2023-02-05T08:12:01;18.20;;;9.47;;
76582;SDS011;65462;52.148;7.940;2023-02-05T08:14:27;15.27;;;8.30;;
76582;SDS011;65462;52.148;7.940;2023-02-05T08:16:52;22.40;;;10.20;;
76582;SDS011;65462;52.148;7.940;2023-02-05T08:19:18;17.50;;;9.90;;
76582;SDS011;65462;52.148;7.940;2023-02-05T08:21:43;17.00;;;9.83;;
76582;SDS011;65462;52.148;7.940;2023-02-05T08:24:09;15.37;;;9.27;;
76582;SDS011;65462;52.148;7.940;2023-02-05T08:26:34;18.67;;;10.17;;
76582;SDS011;65462;52.148;7.940;2023-02-05T08:29:00;15.93;;;9.23;;
76582;SDS011;65462;52.148;7.940;2023-02-05T08:31:26;17.90;;;9.80;;
76582;SDS011;65462;52.148;7.940;2023-02-05T08:33:51;16.17;;;9.33;;
76582;SDS011;65462;52.148;7.940;2023-02-05T08:36:19;19.27;;;10.80;;
76582;SDS011;65462;52.148;7.940;2023-02-05T08:38:45;15.80;;;10.07;;
76582;SDS011;65462;52.148;7.940;2023-02-05T08:41:10;20.30;;;11.17;;
76582;SDS011;65462;52.148;7.940;2023-02-05T08:43:39;20.10;;;11.63;;
76582;SDS011;65462;52.148;7.940;2023-02-05T08:46:06;19.80;;;11.50;;
76582;SDS011;65462;52.148;7.940;2023-02-05T08:48:32;20.67;;;11.57;;
76582;SDS011;65462;52.148;7.940;2023-02-05T08:50:57;20.83;;;11.80;;
76582;SDS011;65462;52.148;7.940;2023-02-05T08:53:23;22.33;;;11.57;;
76582;SDS011;65462;52.148;7.940;2023-02-05T08:55:58;19.53;;;12.37;;
76582;SDS011;65462;52.148;7.940;2023-02-05T08:58:25;16.60;;;10.17;;
76582;SDS011;65462;52.148;7.940;2023-02-05T09:00:50;19.10;;;11.23;;
76582;SDS011;65462;52.148;7.940;2023-02-05T09:03:16;23.07;;;12.00;;
76582;SDS011;65462;52.148;7.940;2023-02-05T09:05:42;22.00;;;12.60;;
76582;SDS011;65462;52.148;7.940;2023-02-05T09:08:07;22.47;;;11.73;;
76582;SDS011;65462;52.148;7.940;2023-02-05T09:10:32;23.60;;;12.40;;
76582;SDS011;65462;52.148;7.940;2023-02-05T09:12:58;19.90;;;12.30;;
76582;SDS011;65462;52.148;7.940;2023-02-05T09:15:23;21.00;;;12.00;;
76582;SDS011;65462;52.148;7.940;2023-02-05T09:17:48;16.97;;;10.97;;
76582;SDS011;65462;52.148;7.940;2023-02-05T09:20:14;17.57;;;11.00;;
76582;SDS011;65462;52.148;7.940;2023-02-05T09:22:39;16.90;;;10.47;;
76582;SDS011;65462;52.148;7.940;2023-02-05T09:25:05;19.93;;;11.53;;
76582;SDS011;65462;52.148;7.940;2023-02-05T09:27:31;19.67;;;11.40;;
76582;SDS011;65462;52.148;7.940;2023-02-05T09:29:57;15.43;;;9.70;;
76582;SDS011;65462;52.148;7.940;2023-02-05T09:32:22;18.47;;;10.83;;
76582;SDS011;65462;52.148;7.940;2023-02-05T09:34:48;18.73;;;11.23;;
76582;SDS011;65462;52.148;7.940;2023-02-05T09:37:14;18.33;;;10.97;;
76582;SDS011;65462;52.148;7.940;2023-02-05T09:39:40;15.60;;;10.83;;
76582;SDS011;65462;52.148;7.940;2023-02-05T09:42:49;17.83;;;10.73;;
76582;SDS011;65462;52.148;7.940;2023-02-05T09:50:39;18.90;;;11.90;;
76582;SDS011;65462;52.148;7.940;2023-02-05T09:53:06;19.90;;;11.53;;
76582;SDS011;65462;52.148;7.940;2023-02-05T09:55:41;19.63;;;12.13;;
76582;SDS011;65462;52.148;7.940;2023-02-05T09:58:28;18.00;;;11.63;;
76582;SDS011;65462;52.148;7.940;2023-02-05T10:01:03;19.43;;;11.47;;
76582;SDS011;65462;52.148;7.940;2023-02-05T10:03:41;18.40;;;11.10;;
76582;SDS011;65462;52.148;7.940;2023-02-05T10:11:23;18.13;;;11.50;;
76582;SDS011;65462;52.148;7.940;2023-02-05T10:14:38;16.93;;;10.87;;
76582;SDS011;65462;52.148;7.940;2023-02-05T10:19:44;17.17;;;9.60;;
76582;SDS011;65462;52.148;7.940;2023-02-05T10:22:25;14.80;;;10.27;;
76582;SDS011;65462;52.148;7.940;2023-02-05T10:28:12;13.40;;;9.50;;
76582;SDS011;65462;52.148;7.940;2023-02-05T10:33:50;16.48;;;9.80;;
76582;SDS011;65462;52.148;7.940;2023-02-05T10:36:23;13.50;;;9.43;;
76582;SDS011;65462;52.148;7.940;2023-02-05T10:38:50;19.73;;;11.07;;
76582;SDS011;65462;52.148;7.940;2023-02-05T10:41:37;17.27;;;10.20;;
76582;SDS011;65462;52.148;7.940;2023-02-05T10:47:03;15.45;;;10.23;;
76582;SDS011;65462;52.148;7.940;2023-02-05T10:49:40;13.93;;;9.97;;
76582;SDS011;65462;52.148;7.940;2023-02-05T10:52:08;18.93;;;11.23;;
76582;SDS011;65462;52.148;7.940;2023-02-05T10:54:36;17.97;;;11.53;;
76582;SDS011;65462;52.148;7.940;2023-02-05T10:57:02;14.97;;;10.33;;
76582;SDS011;65462;52.148;7.940;2023-02-05T10:59:32;17.07;;;11.20;;
76582;SDS011;65462;52.148;7.940;2023-02-05T11:02:01;16.50;;;11.03;;
76582;SDS011;65462;52.148;7.940;2023-02-05T11:04:34;16.70;;;11.50;;
76582;SDS011;65462;52.148;7.940;2023-02-05T11:07:03;14.53;;;9.07;;
76582;SDS011;65462;52.148;7.940;2023-02-05T11:09:33;9.30;;;6.43;;
76582;SDS011;65462;52.148;7.940;2023-02-05T11:12:03;12.37;;;6.97;;
76582;SDS011;65462;52.148;7.940;2023-02-05T11:14:54;8.13;;;5.70;;
76582;SDS011;65462;52.148;7.940;2023-02-05T11:17:22;13.20;;;6.30;;
76582;SDS011;65462;52.148;7.940;2023-02-05T11:19:53;9.50;;;6.33;;
76582;SDS011;65462;52.148;7.940;2023-02-05T11:22:31;10.07;;;6.60;;
76582;SDS011;65462;52.148;7.940;2023-02-05T11:25:04;12.37;;;7.17;;
76582;SDS011;65462;52.148;7.940;2023-02-05T11:27:30;13.00;;;7.70;;
76582;SDS011;65462;52.148;7.940;2023-02-05T11:29:58;13.63;;;8.13;;
76582;SDS011;65462;52.148;7.940;2023-02-05T11:32:41;14.83;;;8.33;;
76582;SDS011;65462;52.148;7.940;2023-02-05T11:35:17;13.97;;;7.87;;
76582;SDS011;65462;52.148;7.940;2023-02-05T11:38:04;11.03;;;8.13;;
76582;SDS011;65462;52.148;7.940;2023-02-05T11:40:32;14.17;;;8.37;;
76582;SDS011;65462;52.148;7.940;2023-02-05T11:43:02;14.73;;;9.10;;
76582;SDS011;65462;52.148;7.940;2023-02-05T11:45:30;12.87;;;8.63;;
76582;SDS011;65462;52.148;7.940;2023-02-05T11:47:59;14.90;;;9.57;;
76582;SDS011;65462;52.148;7.940;2023-02-05T11:50:26;13.60;;;8.63;;
76582;SDS011;65462;52.148;7.940;2023-02-05T11:52:54;16.20;;;9.43;;
76582;SDS011;65462;52.148;7.940;2023-02-05T11:58:36;14.40;;;8.83;;
76582;SDS011;65462;52.148;7.940;2023-02-05T12:01:05;15.10;;;8.47;;
76582;SDS011;65462;52.148;7.940;2023-02-05T12:03:45;15.63;;;8.93;;
76582;SDS011;65462;52.148;7.940;2023-02-05T12:06:22;13.70;;;8.90;;
76582;SDS011;65462;52.148;7.940;2023-02-05T12:08:53;15.43;;;9.17;;
76582;SDS011;65462;52.148;7.940;2023-02-05T12:17:41;11.37;;;7.40;;
76582;SDS011;65462;52.148;7.940;2023-02-05T12:20:22;12.10;;;7.67;;
76582;SDS011;65462;52.148;7.940;2023-02-05T12:26:00;11.33;;;7.63;;
76582;SDS011;65462;52.148;7.940;2023-02-05T12:28:58;12.95;;;7.15;;
76582;SDS011;65462;52.148;7.940;2023-02-05T12:37:09;10.23;;;7.03;;
76582;SDS011;65462;52.148;7.940;2023-02-05T12:39:42;9.73;;;7.00;;
76582;SDS011;65462;52.148;7.940;2023-02-05T12:45:14;13.00;;;7.60;;
76582;SDS011;65462;52.148;7.940;2023-02-05T12:48:26;9.90;;;6.45;;
76582;SDS011;65462;52.148;7.940;2023-02-05T12:53:46;9.97;;;6.70;;
76582;SDS011;65462;52.148;7.940;2023-02-05T12:56:32;9.23;;;6.70;;
76582;SDS011;65462;52.148;7.940;2023-02-05T12:59:22;9.13;;;6.97;;
76582;SDS011;65462;52.148;7.940;2023-02-05T13:01:52;8.93;;;6.40;;
76582;SDS011;65462;52.148;7.940;2023-02-05T13:04:25;8.52;;;6.20;;
76582;SDS011;65462;52.148;7.940;2023-02-05T13:06:56;9.27;;;6.20;;
76582;SDS011;65462;52.148;7.940;2023-02-05T13:09:30;8.97;;;6.40;;
76582;SDS011;65462;52.148;7.940;2023-02-05T13:12:06;13.23;;;7.40;;
76582;SDS011;65462;52.148;7.940;2023-02-05T13:14:40;12.67;;;8.40;;
76582;SDS011;65462;52.148;7.940;2023-02-05T13:17:14;11.83;;;7.83;;
76582;SDS011;65462;52.148;7.940;2023-02-05T13:19:50;10.57;;;7.47;;
76582;SDS011;65462;52.148;7.940;2023-02-05T13:22:20;13.83;;;8.07;;
76582;SDS011;65462;52.148;7.940;2023-02-05T13:31:03;15.60;;;7.72;;
76582;SDS011;65462;52.148;7.940;2023-02-05T13:33:30;10.13;;;6.60;;
76582;SDS011;65462;52.148;7.940;2023-02-05T13:41:38;9.93;;;6.37;;
76582;SDS011;65462;52.148;7.940;2023-02-05T13:44:29;12.47;;;7.20;;
76582;SDS011;65462;52.148;7.940;2023-02-05T13:50:32;10.70;;;6.40;;
76582;SDS011;65462;52.148;7.940;2023-02-05T13:58:52;8.57;;;5.77;;
76582;SDS011;65462;52.148;7.940;2023-02-05T14:01:28;13.27;;;6.23;;
76582;SDS011;65462;52.148;7.940;2023-02-05T14:03:59;10.87;;;5.17;;
76582;SDS011;65462;52.148;7.940;2023-02-05T14:06:29;12.20;;;5.67;;
76582;SDS011;65462;52.148;7.940;2023-02-05T14:16:53;12.17;;;5.30;;
76582;SDS011;65462;52.148;7.940;2023-02-05T14:29:55;8.87;;;4.10;;
76582;SDS011;65462;52.148;7.940;2023-02-05T14:35:37;9.40;;;3.90;;
76582;SDS011;65462;52.148;7.940;2023-02-05T14:40:29;8.73;;;2.97;;
76582;SDS011;65462;52.148;7.940;2023-02-05T14:42:57;10.17;;;3.50;;
76582;SDS011;65462;52.148;7.940;2023-02-05T14:45:27;9.50;;;3.17;;
76582;SDS011;65462;52.148;7.940;2023-02-05T14:47:53;9.37;;;3.10;;
76582;SDS011;65462;52.148;7.940;2023-02-05T14:50:21;8.20;;;2.90;;
76582;SDS011;65462;52.148;7.940;2023-02-05T14:52:52;9.43;;;2.70;;
76582;SDS011;65462;52.148;7.940;2023-02-05T14:55:24;7.10;;;2.67;;
76582;SDS011;65462;52.148;7.940;2023-02-05T14:58:01;11.27;;;2.87;;
76582;SDS011;65462;52.148;7.940;2023-02-05T15:00:31;14.13;;;2.87;;
76582;SDS011;65462;52.148;7.940;2023-02-05T15:08:13;9.87;;;1.90;;
76582;SDS011;65462;52.148;7.940;2023-02-05T15:10:44;7.30;;;1.87;;
76582;SDS011;65462;52.148;7.940;2023-02-05T15:13:17;8.90;;;1.77;;
76582;SDS011;65462;52.148;7.940;2023-02-05T15:18:45;8.53;;;1.47;;
76582;SDS011;65462;52.148;7.940;2023-02-05T15:21:16;7.97;;;1.40;;
76582;SDS011;65462;52.148;7.940;2023-02-05T15:23:50;9.73;;;1.30;;
76582;SDS011;65462;52.148;7.940;2023-02-05T15:31:50;7.93;;;1.77;;
76582;SDS011;65462;52.148;7.940;2023-02-05T15:34:26;9.67;;;1.60;;
76582;SDS011;65462;52.148;7.940;2023-02-05T15:37:02;10.03;;;1.23;;
76582;SDS011;65462;52.148;7.940;2023-02-05T15:39:47;7.40;;;1.73;;
76582;SDS011;65462;52.148;7.940;2023-02-05T15:42:17;7.50;;;1.43;;
76582;SDS011;65462;52.148;7.940;2023-02-05T15:44:44;7.70;;;1.63;;
76582;SDS011;65462;52.148;7.940;2023-02-05T15:47:11;11.93;;;1.70;;
76582;SDS011;65462;52.148;7.940;2023-02-05T15:49:43;9.30;;;2.00;;
76582;SDS011;65462;52.148;7.940;2023-02-05T15:52:16;10.20;;;2.07;;
76582;SDS011;65462;52.148;7.940;2023-02-05T15:54:44;12.60;;;1.73;;
76582;SDS011;65462;52.148;7.940;2023-02-05T15:57:21;10.47;;;1.70;;
76582;SDS011;65462;52.148;7.940;2023-02-05T15:59:49;11.07;;;2.07;;
76582;SDS011;65462;52.148;7.940;2023-02-05T16:02:20;12.33;;;2.17;;
76582;SDS011;65462;52.148;7.940;2023-02-05T16:04:55;10.83;;;2.30;;
76582;SDS011;65462;52.148;7.940;2023-02-05T16:07:42;10.20;;;1.80;;
76582;SDS011;65462;52.148;7.940;2023-02-05T16:10:16;13.23;;;1.97;;
76582;SDS011;65462;52.148;7.940;2023-02-05T16:13:01;14.43;;;2.43;;
76582;SDS011;65462;52.148;7.940;2023-02-05T16:15:35;8.20;;;1.80;;
76582;SDS011;65462;52.148;7.940;2023-02-05T16:21:10;12.93;;;2.70;;
76582;SDS011;65462;52.148;7.940;2023-02-05T16:23:55;9.73;;;2.23;;
76582;SDS011;65462;52.148;7.940;2023-02-05T16:26:28;12.87;;;1.90;;
76582;SDS011;65462;52.148;7.940;2023-02-05T16:29:02;12.00;;;2.40;;
76582;SDS011;65462;52.148;7.940;2023-02-05T16:31:29;13.40;;;2.10;;
76582;SDS011;65462;52.148;7.940;2023-02-05T16:34:02;8.70;;;1.83;;
76582;SDS011;65462;52.148;7.940;2023-02-05T16:36:33;11.65;;;2.05;;
76582;SDS011;65462;52.148;7.940;2023-02-05T16:39:02;11.60;;;2.73;;
76582;SDS011;65462;52.148;7.940;2023-02-05T16:41:34;12.33;;;2.30;;
76582;SDS011;65462;52.148;7.940;2023-02-05T16:44:03;13.80;;;2.90;;
76582;SDS011;65462;52.148;7.940;2023-02-05T16:46:30;16.30;;;2.77;;
76582;SDS011;65462;52.148;7.940;2023-02-05T16:48:58;9.50;;;2.10;;
76582;SDS011;65462;52.148;7.940;2023-02-05T16:51:29;16.07;;;2.93;;
76582;SDS011;65462;52.148;7.940;2023-02-05T16:53:58;13.67;;;2.83;;
76582;SDS011;65462;52.148;7.940;2023-02-05T16:56:31;9.40;;;2.50;;
76582;SDS011;65462;52.148;7.940;2023-02-05T16:59:00;13.93;;;2.30;;
76582;SDS011;65462;52.148;7.940;2023-02-05T17:01:27;8.77;;;2.57;;